Time;durP1;ratioP1;P1;durP2;ratioP2;P2;SDS_P1;SDS_P2;PMS_P1;PMS_P2;Temp;Humidity;BMP_temperature;BMP_pressure;BME280_temperature;BME280_humidity;BME280_pressure;Samples;Min_cycle;Max_cycle;Signal;HPM_P1;HPM_P2
2022/07/23 00:01:43;;;;;;;;;;;;;;;22.66;55.16;99192.58;1661988;85;20114;-74
2022/07/23 00:04:09;;;;;;;;;;;;;;;22.60;55.26;99194.38;1635857;86;20369;-74
2022/07/23 00:06:36;;;;;;;;;;;;;;;22.53;55.43;99197.01;1662553;84;20129;-73
2022/07/23 00:09:02;;;;;;;;;;;;;;;22.50;55.53;99196.19;1630085;86;21162;-73
2022/07/23 00:11:29;;;;;;;;;;;;;;;22.48;55.63;99198.31;1660320;84;20080;-73
2022/07/23 00:13:57;;;;;;;;;;;;;;;22.47;55.65;99196.16;1647391;85;20090;-73
2022/07/23 00:16:25;;;;;;;;;;;;;;;22.47;55.63;99197.52;1673509;84;20407;-73
2022/07/23 00:18:51;;;;;;;;;;;;;;;22.48;55.68;99196.42;1689176;84;20138;-75
2022/07/23 00:21:18;;;;;;;;;;;;;;;22.48;55.71;99194.24;1676201;84;21861;-73
2022/07/23 00:23:44;;;;;;;;;;;;;;;22.48;55.72;99196.42;1669200;84;20153;-73
2022/07/23 00:26:10;;;;;;;;;;;;;;;22.48;55.78;99202.38;1664113;85;20128;-74
2022/07/23 00:28:37;;;;;;;;;;;;;;;22.48;55.85;99202.38;1652896;85;20144;-74
2022/07/23 00:31:03;;;;;;;;;;;;;;;22.46;55.80;99201.81;1662383;85;20488;-73
2022/07/23 00:33:30;;;;;;;;;;;;;;;22.45;55.76;99200.16;1630414;86;21195;-73
2022/07/23 00:35:57;;;;;;;;;;;;;;;22.44;55.79;99203.97;1664118;84;20088;-73
2022/07/23 00:38:24;;;;;;;;;;;;;;;22.43;55.74;99205.03;1647299;85;20122;-74
2022/07/23 00:40:50;;;;;;;;;;;;;;;22.40;55.74;99209.06;1648966;85;20467;-73
2022/07/23 00:43:16;;;;;;;;;;;;;;;22.41;55.74;99210.72;1661301;84;20142;-73
2022/07/23 00:45:42;;;;;;;;;;;;;;;22.42;55.73;99210.98;1663268;84;21798;-73
2022/07/23 00:48:09;;;;;;;;;;;;;;;22.42;55.63;99208.83;1655557;85;20127;-72
2022/07/23 00:50:36;;;;;;;;;;;;;;;22.40;55.59;99207.70;1674695;84;20194;-74
2022/07/23 00:53:04;;;;;;;;;;;;;;;22.39;55.57;99207.45;1651103;85;20448;-73
2022/07/23 00:55:32;;;;;;;;;;;;;;;22.38;55.63;99200.37;1656347;85;20130;-74
2022/07/23 00:57:58;;;;;;;;;;;;;;;22.38;55.66;99206.33;1666453;84;21244;-73
2022/07/23 01:00:24;;;;;;;;;;;;;;;22.37;55.77;99203.35;1680789;84;20487;-73
2022/07/23 01:02:51;;;;;;;;;;;;;;;22.37;55.82;99209.56;1631996;86;20318;-73
2022/07/23 01:05:21;;;;;;;;;;;;;;;22.36;55.91;99212.55;1664319;84;20087;-73
2022/07/23 01:07:46;;;;;;;;;;;;;;;22.35;55.95;99209.01;1656801;85;20445;-73
2022/07/23 01:10:31;;;;;;;;;;;;;;;22.34;56.00;99209.27;1669807;84;21275;-74
2022/07/23 01:13:00;;;;;;;;;;;;;;;22.33;56.02;99211.69;1668279;84;20120;-73
2022/07/23 01:15:28;;;;;;;;;;;;;;;22.32;56.04;99219.52;1647429;85;20523;-73
2022/07/23 01:17:54;;;;;;;;;;;;;;;22.33;56.07;99217.11;1685505;84;20146;-73
2022/07/23 01:20:21;;;;;;;;;;;;;;;22.34;56.07;99217.40;1618087;86;20148;-73
2022/07/23 01:22:49;;;;;;;;;;;;;;;22.35;55.99;99216.31;1642299;85;20095;-73
2022/07/23 01:25:15;;;;;;;;;;;;;;;22.36;56.01;99217.44;1663567;85;20151;-72
2022/07/23 01:27:43;;;;;;;;;;;;;;;22.37;55.97;99210.92;1634109;86;20086;-73
2022/07/23 01:30:11;;;;;;;;;;;;;;;22.38;55.94;99213.09;1659670;85;20099;-72
2022/07/23 01:32:37;;;;;;;;;;;;;;;22.37;56.00;99211.48;1657553;85;20130;-72
2022/07/23 01:35:05;;;;;;;;;;;;;;;22.34;56.08;99206.56;1657560;85;21838;-73
2022/07/23 01:37:32;;;;;;;;;;;;;;;22.32;56.16;99211.39;1657434;85;20122;-72
2022/07/23 01:39:58;;;;;;;;;;;;;;;22.31;56.22;99213.84;1641607;86;20145;-72
2022/07/23 01:42:25;;;;;;;;;;;;;;;22.29;56.30;99207.86;1657403;85;20082;-72
2022/07/23 01:44:51;;;;;;;;;;;;;;;22.25;56.37;99213.48;1657535;85;20277;-72
2022/07/23 01:47:19;;;;;;;;;;;;;;;22.19;56.49;99215.86;1664917;85;21788;-74
2022/07/23 01:49:47;;;;;;;;;;;;;;;22.13;56.60;99208.99;1656450;85;20950;-73
2022/07/23 01:52:16;;;;;;;;;;;;;;;22.11;56.68;99209.79;1644591;85;20121;-73
2022/07/23 01:54:44;;;;;;;;;;;;;;;22.10;56.75;99203.28;1661895;85;20106;-73
2022/07/23 01:57:10;;;;;;;;;;;;;;;22.07;56.82;99205.95;1657524;85;20122;-73
2022/07/23 01:59:39;;;;;;;;;;;;;;;22.04;56.89;99205.09;1657535;85;21092;-72
2022/07/23 02:02:06;;;;;;;;;;;;;;;22.02;57.05;99201.00;1658617;85;20078;-74
2022/07/23 02:04:36;;;;;;;;;;;;;;;21.97;57.18;99205.83;1667040;85;20082;-74
2022/07/23 02:07:01;;;;;;;;;;;;;;;21.89;57.38;99202.19;1657686;85;20098;-72
2022/07/23 02:09:28;;;;;;;;;;;;;;;21.86;57.51;99203.21;1659565;85;20118;-73
2022/07/23 02:11:55;;;;;;;;;;;;;;;21.83;57.70;99200.97;1660664;85;21805;-73
2022/07/23 02:14:21;;;;;;;;;;;;;;;21.78;57.87;99194.95;1662592;85;20121;-73
2022/07/23 02:16:49;;;;;;;;;;;;;;;21.72;58.04;99194.59;1669501;85;20088;-73
2022/07/23 02:19:15;;;;;;;;;;;;;;;21.69;58.20;99192.37;1664310;85;20127;-74
2022/07/23 02:21:42;;;;;;;;;;;;;;;21.67;58.29;99189.10;1657490;85;20145;-73
2022/07/23 02:24:09;;;;;;;;;;;;;;;21.66;58.40;99188.84;1666012;85;20817;-73
2022/07/23 02:26:35;;;;;;;;;;;;;;;21.62;58.50;99187.67;1668189;84;20158;-72
2022/07/23 02:29:04;;;;;;;;;;;;;;;21.61;58.58;99187.41;1662585;84;20423;-73
2022/07/23 02:31:30;;;;;;;;;;;;;;;21.59;58.58;99183.31;1665949;84;20171;-74
2022/07/23 02:33:56;;;;;;;;;;;;;;;21.56;58.67;99184.63;1683125;83;20127;-72
2022/07/23 02:36:23;;;;;;;;;;;;;;;21.55;58.67;99182.98;1664222;85;21032;-74
2022/07/23 02:38:50;;;;;;;;;;;;;;;21.58;58.64;99185.72;1678860;84;20429;-73
2022/07/23 02:41:18;;;;;;;;;;;;;;;21.58;58.54;99183.84;1663285;85;20502;-72
2022/07/23 02:43:44;;;;;;;;;;;;;;;21.60;58.44;99191.17;1676563;84;20155;-74
2022/07/23 02:46:11;;;;;;;;;;;;;;;21.63;58.38;99187.15;1664951;84;20449;-74
2022/07/23 02:48:38;;;;;;;;;;;;;;;21.64;58.29;99189.59;1680576;84;21119;-73
2022/07/23 02:51:05;;;;;;;;;;;;;;;21.68;58.24;99191.28;1675286;84;20075;-74
2022/07/23 02:53:33;;;;;;;;;;;;;;;21.70;58.22;99187.25;1646529;85;20127;-73
2022/07/23 02:56:00;;;;;;;;;;;;;;;21.73;58.11;99185.41;1683817;84;20437;-73
2022/07/23 02:58:27;;;;;;;;;;;;;;;21.78;57.92;99190.89;1664277;85;20110;-72
2022/07/23 03:00:53;;;;;;;;;;;;;;;21.82;57.79;99189.31;1664187;84;21138;-73
2022/07/23 03:03:20;;;;;;;;;;;;;;;21.86;57.64;99193.20;1668448;84;20106;-72
2022/07/23 03:05:48;;;;;;;;;;;;;;;21.93;57.43;99195.19;1680356;84;20120;-72
2022/07/23 03:08:16;;;;;;;;;;;;;;;21.99;57.21;99192.84;1645501;85;20105;-73
2022/07/23 03:10:45;;;;;;;;;;;;;;;22.05;56.98;99189.67;1664289;85;20186;-73
2022/07/23 03:13:12;;;;;;;;;;;;;;;22.09;56.78;99187.55;1669336;84;21158;-73
2022/07/23 03:15:38;;;;;;;;;;;;;;;22.19;56.57;99192.27;1683130;84;20141;-73
2022/07/23 03:18:06;;;;;;;;;;;;;;;22.29;56.19;99190.24;1688144;84;20088;-73
2022/07/23 03:20:32;;;;;;;;;;;;;;;22.39;55.81;99189.83;1646061;85;20122;-74
2022/07/23 03:23:00;;;;;;;;;;;;;;;22.51;55.53;99183.72;1684295;84;20631;-72
2022/07/23 03:25:27;;;;;;;;;;;;;;;22.65;55.03;99180.11;1671671;84;21169;-72
2022/07/23 03:27:53;;;;;;;;;;;;;;;22.79;54.57;99185.39;1664306;85;20116;-72
2022/07/23 03:30:21;;;;;;;;;;;;;;;22.94;54.08;99186.92;1647283;85;20094;-73
2022/07/23 03:32:49;;;;;;;;;;;;;;;23.13;53.53;99188.69;1664176;84;20087;-73
2022/07/23 03:35:16;;;;;;;;;;;;;;;23.32;52.91;99188.59;1655616;85;20088;-71
2022/07/23 03:37:44;;;;;;;;;;;;;;;23.55;52.22;99192.85;1673266;84;21053;-74
2022/07/23 03:40:11;;;;;;;;;;;;;;;23.75;51.51;99195.16;1662510;85;20086;-72
2022/07/23 03:42:41;;;;;;;;;;;;;;;23.96;51.00;99192.02;1638204;86;20090;-72
2022/07/23 03:45:07;;;;;;;;;;;;;;;24.24;50.49;99200.36;1670405;84;20138;-74
2022/07/23 03:47:34;;;;;;;;;;;;;;;24.49;49.86;99199.08;1638674;86;20436;-73
2022/07/23 03:50:01;;;;;;;;;;;;;;;24.74;49.34;99195.63;1681185;84;21206;-73
2022/07/23 03:52:27;;;;;;;;;;;;;;;25.02;48.62;99192.44;1675100;83;20089;-73
2022/07/23 03:54:54;;;;;;;;;;;;;;;25.29;48.02;99202.50;1663698;85;20095;-73
2022/07/23 03:57:22;;;;;;;;;;;;;;;25.59;47.30;99206.63;1655030;85;20151;-75
2022/07/23 03:59:49;;;;;;;;;;;;;;;25.94;46.63;99203.56;1669226;84;20089;-73
2022/07/23 04:02:16;;;;;;;;;;;;;;;26.27;45.94;99198.30;1662163;85;21167;-74
2022/07/23 04:04:42;;;;;;;;;;;;;;;26.64;45.14;99200.58;1647278;85;20146;-74
2022/07/23 04:07:08;;;;;;;;;;;;;;;26.92;44.41;99199.89;1679773;84;20447;-73
2022/07/23 04:09:36;;;;;;;;;;;;;;;27.22;43.69;99198.05;1640184;86;21393;-72
2022/07/23 04:12:03;;;;;;;;;;;;;;;27.40;43.01;99196.02;1678650;84;20101;-72
2022/07/23 04:14:31;;;;;;;;;;;;;;;27.57;42.63;99197.76;1669222;84;21207;-72
2022/07/23 04:16:57;;;;;;;;;;;;;;;27.93;42.19;99201.76;1667072;84;20186;-73
2022/07/23 04:19:23;;;;;;;;;;;;;;;28.40;41.56;99197.41;1670620;84;20472;-74
2022/07/23 04:21:52;;;;;;;;;;;;;;;28.84;40.75;99192.45;1617795;86;20142;-73
2022/07/23 04:24:18;;;;;;;;;;;;;;;29.25;40.06;99187.20;1662054;84;20155;-74
2022/07/23 04:26:45;;;;;;;;;;;;;;;29.65;39.47;99188.41;1649604;85;21144;-73
2022/07/23 04:29:12;;;;;;;;;;;;;;;30.08;38.53;99188.45;1673562;85;20128;-73
2022/07/23 04:31:38;;;;;;;;;;;;;;;30.51;37.77;99191.70;1647514;86;20471;-73
2022/07/23 04:34:05;;;;;;;;;;;;;;;30.98;36.78;99184.89;1635597;86;20126;-73
2022/07/23 04:36:33;;;;;;;;;;;;;;;31.39;35.96;99178.65;1662517;85;20437;-74
2022/07/23 04:38:59;;;;;;;;;;;;;;;31.68;35.25;99180.95;1650706;85;21138;-74
2022/07/23 04:41:26;;;;;;;;;;;;;;;31.98;34.54;99175.20;1662830;85;20096;-74
2022/07/23 04:43:53;;;;;;;;;;;;;;;32.22;34.27;99176.47;1650138;85;20082;-74
2022/07/23 04:46:20;;;;;;;;;;;;;;;32.64;33.79;99174.94;1659745;85;20130;-73
2022/07/23 04:48:48;;;;;;;;;;;;;;;33.04;33.38;99172.03;1661344;85;20110;-74
2022/07/23 04:51:15;;;;;;;;;;;;;;;33.47;32.46;99178.36;1638923;85;21124;-75
2022/07/23 04:53:41;;;;;;;;;;;;;;;33.81;31.95;99176.91;1659373;85;20102;-74
2022/07/23 04:56:07;;;;;;;;;;;;;;;34.16;31.25;99183.11;1657421;85;20119;-73
2022/07/23 04:58:34;;;;;;;;;;;;;;;34.58;30.76;99179.89;1657427;85;20459;-73
2022/07/23 05:01:01;;;;;;;;;;;;;;;34.88;30.64;99178.71;1666048;85;20088;-71
2022/07/23 05:03:27;;;;;;;;;;;;;;;35.35;30.04;99177.31;1653887;85;21157;-73
2022/07/23 05:05:53;;;;;;;;;;;;;;;35.69;29.19;99179.53;1657451;85;20209;-73
2022/07/23 05:08:20;;;;;;;;;;;;;;;35.88;28.92;99178.39;1657432;85;20098;-72
2022/07/23 05:10:48;;;;;;;;;;;;;;;36.10;28.48;99182.72;1658010;85;20585;-73
2022/07/23 05:13:16;;;;;;;;;;;;;;;36.32;28.21;99178.91;1658161;85;20090;-73
2022/07/23 05:15:44;;;;;;;;;;;;;;;36.58;27.89;99182.71;1654015;85;21169;-72
2022/07/23 05:18:12;;;;;;;;;;;;;;;36.78;27.49;99176.80;1670079;85;20193;-73
2022/07/23 05:20:39;;;;;;;;;;;;;;;36.73;27.04;99175.66;1660701;85;20099;-69
2022/07/23 05:23:05;;;;;;;;;;;;;;;36.84;27.15;99181.73;1660345;85;20149;-71
2022/07/23 05:25:32;;;;;;;;;;;;;;;37.00;26.93;99177.67;1662250;85;20149;-71
2022/07/23 05:27:59;;;;;;;;;;;;;;;37.08;26.55;99178.92;1652804;85;21117;-74
2022/07/23 05:30:25;;;;;;;;;;;;;;;37.39;26.27;99176.81;1641296;86;20439;-73
2022/07/23 05:32:55;;;;;;;;;;;;;;;37.84;25.97;99176.47;1632880;87;20106;-74
2022/07/23 05:35:22;;;;;;;;;;;;;;;38.20;25.46;99176.80;1637669;87;20145;-71
2022/07/23 05:38:06;;;;;;;;;;;;;;;38.28;25.35;99178.00;1626883;87;20094;-74
2022/07/23 05:40:34;;;;;;;;;;;;;;;38.12;25.12;99175.03;1659924;86;22439;-72
2022/07/23 05:43:01;;;;;;;;;;;;;;;38.28;25.15;99173.84;1669081;85;20153;-72
2022/07/23 05:45:27;;;;;;;;;;;;;;;38.52;24.98;99181.17;1648214;86;20088;-73
2022/07/23 05:47:54;;;;;;;;;;;;;;;38.92;24.49;99173.14;1626289;87;20152;-71
2022/07/23 05:50:27;;;;;;;;;;;;;;;39.19;24.08;99167.38;1670065;86;20096;-69
2022/07/23 05:52:55;;;;;;;;;;;;;;;39.21;24.22;99160.08;1661096;86;20720;-71
2022/07/23 05:55:31;;;;;;;;;;;;;;;39.80;23.65;99165.98;1671343;85;20136;-70
2022/07/23 05:57:58;;;;;;;;;;;;;;;39.75;23.44;99166.88;1678681;85;20128;-71
2022/07/23 06:00:27;;;;;;;;;;;;;;;39.82;23.47;99162.81;1667355;86;20653;-71
2022/07/23 06:02:53;;;;;;;;;;;;;;;40.12;22.85;99160.17;1632643;87;20232;-71
2022/07/23 06:05:20;;;;;;;;;;;;;;;40.13;23.13;99156.22;1638704;87;20708;-70
2022/07/23 06:07:47;;;;;;;;;;;;;;;40.36;22.83;99163.33;1667247;86;20102;-69
2022/07/23 06:10:14;;;;;;;;;;;;;;;40.72;22.61;99157.72;1679082;85;20181;-68
2022/07/23 06:12:42;;;;;;;;;;;;;;;41.34;22.35;99160.92;1666703;86;20169;-70
2022/07/23 06:15:10;;;;;;;;;;;;;;;41.75;21.68;99151.39;1645182;87;20496;-71
2022/07/23 06:17:39;;;;;;;;;;;;;;;41.76;21.62;99153.02;1644917;87;20483;-72
2022/07/23 06:20:07;;;;;;;;;;;;;;;42.05;21.08;99148.47;1667706;86;20176;-71
2022/07/23 06:22:36;;;;;;;;;;;;;;;42.16;20.64;99150.78;1665519;85;20166;-71
2022/07/23 06:25:06;;;;;;;;;;;;;;;41.51;21.27;99150.55;1663552;85;21002;-69
2022/07/23 06:27:34;;;;;;;;;;;;;;;40.92;21.61;99148.64;1670440;84;20120;-71
2022/07/23 06:30:02;;;;;;;;;;;;;;;40.17;22.33;99152.89;1658360;86;21276;-70
2022/07/23 06:32:29;;;;;;;;;;;;;;;40.17;22.20;99154.28;1616174;87;20440;-72
2022/07/23 06:34:56;;;;;;;;;;;;;;;39.85;22.58;99150.94;1639685;87;20082;-71
2022/07/23 06:37:22;;;;;;;;;;;;;;;39.37;22.75;99149.66;1656347;86;20105;-70
2022/07/23 06:39:48;;;;;;;;;;;;;;;38.90;23.52;99152.67;1666887;85;20124;-71
2022/07/23 06:42:15;;;;;;;;;;;;;;;39.43;23.30;99149.56;1662544;86;21073;-72
2022/07/23 06:44:45;;;;;;;;;;;;;;;39.94;22.10;99148.72;1661101;86;20097;-70
2022/07/23 06:47:11;;;;;;;;;;;;;;;40.05;21.95;99140.77;1645120;86;20446;-70
2022/07/23 06:49:38;;;;;;;;;;;;;;;40.33;21.70;99143.20;1679568;85;20127;-72
2022/07/23 06:52:05;;;;;;;;;;;;;;;40.79;21.06;99143.87;1658893;86;20126;-72
2022/07/23 06:54:33;;;;;;;;;;;;;;;41.30;20.61;99141.37;1656848;85;21118;-71
2022/07/23 06:56:59;;;;;;;;;;;;;;;41.91;20.16;99147.75;1668269;86;20126;-70
2022/07/23 06:59:28;;;;;;;;;;;;;;;42.11;19.82;99137.92;1664834;86;20154;-72
2022/07/23 07:01:55;;;;;;;;;;;;;;;42.45;19.89;99133.80;1679461;85;20172;-69
2022/07/23 07:04:22;;;;;;;;;;;;;;;41.88;19.95;99127.57;1667994;86;20138;-72
2022/07/23 07:06:49;;;;;;;;;;;;;;;41.53;20.61;99128.63;1667701;85;21797;-70
2022/07/23 07:09:15;;;;;;;;;;;;;;;42.06;20.14;99125.72;1663871;85;20120;-68
2022/07/23 07:11:43;;;;;;;;;;;;;;;42.44;19.84;99123.83;1633506;87;20220;-71
2022/07/23 07:14:11;;;;;;;;;;;;;;;42.23;19.46;99125.09;1670452;86;20124;-73
2022/07/23 07:16:37;;;;;;;;;;;;;;;41.92;19.67;99125.63;1668459;86;20137;-72
2022/07/23 07:19:04;;;;;;;;;;;;;;;41.64;20.13;99127.53;1680699;85;20597;-73
2022/07/23 07:21:31;;;;;;;;;;;;;;;41.65;20.28;99129.15;1684589;85;20087;-73
2022/07/23 07:23:57;;;;;;;;;;;;;;;41.91;19.61;99126.80;1677229;85;20114;-73
2022/07/23 07:26:41;;;;;;;;;;;;;;;41.82;19.49;99128.52;1656248;85;20102;-72
2022/07/23 07:29:08;;;;;;;;;;;;;;;42.48;19.15;99130.01;1645637;86;20154;-73
2022/07/23 07:31:34;;;;;;;;;;;;;;;42.69;19.25;99137.15;1645652;86;21855;-74
2022/07/23 07:34:00;;;;;;;;;;;;;;;42.95;18.94;99130.70;1645378;86;20103;-73
2022/07/23 07:36:26;;;;;;;;;;;;;;;42.72;19.19;99134.97;1645702;86;20145;-73
2022/07/23 07:38:53;;;;;;;;;;;;;;;42.77;19.15;99141.58;1645507;86;20190;-72
2022/07/23 07:41:23;;;;;;;;;;;;;;;42.82;18.50;99147.61;1645669;86;20126;-73
2022/07/23 07:43:48;;;;;;;;;;;;;;;42.57;18.89;99141.69;1645674;86;21267;-73
2022/07/23 07:46:14;;;;;;;;;;;;;;;42.70;18.87;99141.56;1646663;86;20098;-73
2022/07/23 07:48:40;;;;;;;;;;;;;;;42.74;18.68;99145.16;1660154;85;20420;-72
2022/07/23 07:51:07;;;;;;;;;;;;;;;42.12;18.73;99143.77;1653619;85;20130;-72
2022/07/23 07:53:34;;;;;;;;;;;;;;;41.24;20.02;99138.08;1654354;85;20139;-73
2022/07/23 07:56:00;;;;;;;;;;;;;;;40.99;19.96;99143.14;1653613;85;21808;-71
2022/07/23 07:58:28;;;;;;;;;;;;;;;40.97;19.89;99148.30;1652604;85;20142;-71
2022/07/23 08:00:54;;;;;;;;;;;;;;;41.06;19.96;99142.66;1652627;85;20147;-73
2022/07/23 08:03:21;;;;;;;;;;;;;;;41.31;19.71;99149.13;1652707;85;20090;-73
2022/07/23 08:05:48;;;;;;;;;;;;;;;41.52;19.86;99137.59;1652685;85;20126;-72
2022/07/23 08:08:15;;;;;;;;;;;;;;;41.99;20.15;99148.61;1652878;85;21143;-73
2022/07/23 08:10:43;;;;;;;;;;;;;;;42.82;19.18;99149.59;1652593;85;20109;-73
2022/07/23 08:13:17;;;;;;;;;;;;;;;43.72;18.10;99153.75;1652621;85;20102;-71
2022/07/23 08:15:44;;;;;;;;;;;;;;;44.49;17.13;99150.94;1657595;85;20116;-72
2022/07/23 08:18:10;;;;;;;;;;;;;;;45.19;16.40;99154.70;1666237;85;20483;-72
2022/07/23 08:20:38;;;;;;;;;;;;;;;45.55;16.09;99147.69;1652914;85;22626;-72
2022/07/23 08:23:06;;;;;;;;;;;;;;;45.85;16.03;99145.10;1652608;85;20126;-73
2022/07/23 08:25:35;;;;;;;;;;;;;;;45.51;16.11;99142.72;1652662;85;20182;-72
2022/07/23 08:28:04;;;;;;;;;;;;;;;45.68;16.37;99148.83;1658728;85;20271;-73
2022/07/23 08:30:31;;;;;;;;;;;;;;;45.76;16.30;99158.80;1664860;85;20085;-74
2022/07/23 08:33:04;;;;;;;;;;;;;;;45.60;16.09;99147.87;1665027;85;21140;-72
2022/07/23 08:35:35;;;;;;;;;;;;;;;45.98;15.82;99151.81;1670511;84;20524;-72
2022/07/23 08:38:03;;;;;;;;;;;;;;;46.40;15.56;99152.08;1654403;85;20432;-73
2022/07/23 08:40:32;;;;;;;;;;;;;;;46.89;15.25;99158.38;1671304;84;20111;-73
2022/07/23 08:42:58;;;;;;;;;;;;;;;47.16;14.85;99145.80;1654365;85;20440;-73
2022/07/23 08:45:25;;;;;;;;;;;;;;;46.95;14.91;99149.66;1671455;84;21152;-73
2022/07/23 08:47:55;;;;;;;;;;;;;;;47.23;14.63;99154.94;1647498;85;20491;-72
2022/07/23 08:50:23;;;;;;;;;;;;;;;47.35;14.50;99145.13;1671426;84;20087;-72
2022/07/23 08:52:50;;;;;;;;;;;;;;;47.56;14.46;99146.25;1654339;85;20114;-72
2022/07/23 08:55:18;;;;;;;;;;;;;;;47.91;14.27;99147.11;1654391;85;20082;-72
2022/07/23 08:57:45;;;;;;;;;;;;;;;48.04;13.71;99158.56;1654412;85;21604;-74
2022/07/23 09:00:12;;;;;;;;;;;;;;;47.49;14.04;99149.16;1651748;85;20153;-72
2022/07/23 09:02:41;;;;;;;;;;;;;;;47.46;14.04;99145.78;1654037;85;20149;-71
2022/07/23 09:05:10;;;;;;;;;;;;;;;47.29;14.65;99144.00;1671636;84;20087;-72
2022/07/23 09:07:38;;;;;;;;;;;;;;;47.22;14.97;99139.25;1654456;85;20106;-73
2022/07/23 09:10:07;;;;;;;;;;;;;;;47.47;14.81;99145.38;1671594;84;21157;-71
2022/07/23 09:12:34;;;;;;;;;;;;;;;46.79;14.47;99129.16;1642909;86;20435;-73
2022/07/23 09:15:06;;;;;;;;;;;;;;;46.48;14.97;99131.70;1674219;84;20174;-72
2022/07/23 09:17:42;;;;;;;;;;;;;;;46.01;15.48;99137.56;1673296;84;20550;-74
2022/07/23 09:20:13;;;;;;;;;;;;;;;45.50;15.45;99137.52;1652858;84;20112;-74
2022/07/23 09:22:46;;;;;;;;;;;;;;;45.44;16.00;99126.52;1654031;85;21771;-72
2022/07/23 09:25:17;;;;;;;;;;;;;;;44.61;17.02;99125.25;1655327;85;20463;-73
2022/07/23 09:27:50;;;;;;;;;;;;;;;43.67;17.94;99114.31;1653884;85;20444;-72
2022/07/23 09:30:17;;;;;;;;;;;;;;;43.02;18.42;99122.33;1662646;85;38830;-73
2022/07/23 09:32:43;;;;;;;;;;;;;;;41.61;19.88;99123.33;1634286;86;20462;-72
2022/07/23 09:35:09;;;;;;;;;;;;;;;39.84;21.53;99113.94;1650184;85;21616;-72
2022/07/23 09:37:37;;;;;;;;;;;;;;;38.65;23.31;99110.98;1662547;85;20103;-71
2022/07/23 09:40:05;;;;;;;;;;;;;;;37.91;24.17;99108.66;1650226;85;20106;-71
2022/07/23 09:42:32;;;;;;;;;;;;;;;37.44;24.89;99114.78;1650111;85;20142;-71
2022/07/23 09:44:58;;;;;;;;;;;;;;;36.84;25.75;99116.60;1662754;85;20088;-73
2022/07/23 09:47:31;;;;;;;;;;;;;;;36.42;26.49;99119.48;1656558;85;21522;-73
2022/07/23 09:50:05;;;;;;;;;;;;;;;36.10;26.59;99125.97;1662538;85;20424;-72
2022/07/23 09:52:33;;;;;;;;;;;;;;;35.85;27.04;99125.93;1650142;85;20111;-71
2022/07/23 09:55:03;;;;;;;;;;;;;;;35.62;27.39;99124.76;1662600;85;20105;-71
2022/07/23 09:57:29;;;;;;;;;;;;;;;35.62;27.67;99128.91;1650251;85;20185;-72
2022/07/23 09:59:58;;;;;;;;;;;;;;;35.42;27.57;99125.62;1657521;85;21221;-71
2022/07/23 10:02:25;;;;;;;;;;;;;;;35.35;27.68;99119.25;1655094;85;20122;-73
2022/07/23 10:05:10;;;;;;;;;;;;;;;35.24;28.36;99117.27;1657665;85;20170;-73
2022/07/23 10:07:53;;;;;;;;;;;;;;;34.94;28.28;99120.70;1636741;86;20207;-71
2022/07/23 10:10:39;;;;;;;;;;;;;;;34.63;29.22;99121.12;1635857;86;20408;-72
2022/07/23 10:15:47;;;;;;;;;;;;;;;34.30;29.73;99116.63;1657467;85;20101;-71
2022/07/23 10:18:13;;;;;;;;;;;;;;;34.11;29.78;99117.87;1669805;85;20141;-73
2022/07/23 10:20:39;;;;;;;;;;;;;;;33.86;30.25;99122.94;1657442;85;20476;-72
2022/07/23 10:23:29;;;;;;;;;;;;;;;33.72;30.51;99117.38;1655307;85;20415;-72
2022/07/23 10:26:14;;;;;;;;;;;;;;;33.68;30.73;99117.25;1657756;85;21778;-72
2022/07/23 10:28:53;;;;;;;;;;;;;;;33.80;30.57;99122.06;1654775;85;20126;-72
2022/07/23 10:31:32;;;;;;;;;;;;;;;33.95;29.96;99114.59;1640775;86;20124;-71
2022/07/23 10:34:33;;;;;;;;;;;;;;;34.03;29.85;99117.32;1651562;85;20179;-72
2022/07/23 10:37:23;;;;;;;;;;;;;;;34.09;29.97;99110.51;1613242;87;20130;-72
2022/07/23 10:39:47;;;;;;;;;;;;;;;34.22;29.67;99110.02;1639999;86;21192;-71
2022/07/23 10:42:15;;;;;;;;;;;;;;;34.18;30.14;99099.42;1651987;85;20306;-73
2022/07/23 10:44:47;;;;;;;;;;;;;;;34.17;29.87;99110.78;1613159;87;20131;-72
2022/07/23 10:47:35;;;;;;;;;;;;;;;34.08;29.53;99103.92;1659472;85;20139;-74
2022/07/23 10:49:51;;;;;;;;;;;;;;;34.01;29.76;99100.30;1635531;86;20096;-70
2022/07/23 10:52:25;;;;;;;;;;;;;;;33.98;29.81;99092.67;1649616;85;21131;-71
2022/07/23 10:54:53;;;;;;;;;;;;;;;34.11;29.99;99093.04;1613185;87;20106;-72
2022/07/23 10:57:25;;;;;;;;;;;;;;;34.03;30.20;99089.72;1640800;86;20158;-71
2022/07/23 11:02:36;;;;;;;;;;;;;;;33.95;30.36;99087.00;1640777;86;20120;-72
2022/07/23 11:05:10;;;;;;;;;;;;;;;33.95;30.53;99085.06;1640640;86;21576;-73
2022/07/23 11:07:37;;;;;;;;;;;;;;;33.84;30.36;99087.95;1652009;85;20115;-72
2022/07/23 11:10:04;;;;;;;;;;;;;;;33.59;30.31;99081.17;1640855;86;20195;-72
2022/07/23 11:12:32;;;;;;;;;;;;;;;33.45;30.96;99085.52;1640730;86;20497;-72
2022/07/23 11:15:10;;;;;;;;;;;;;;;33.36;30.42;99079.22;1652015;85;20102;-72
2022/07/23 11:17:52;;;;;;;;;;;;;;;33.32;30.71;99079.05;1642410;86;21178;-72
2022/07/23 11:20:22;;;;;;;;;;;;;;;33.34;31.03;99092.52;1623451;86;20203;-72
2022/07/23 11:22:56;;;;;;;;;;;;;;;33.24;30.67;99077.72;1651683;85;20102;-72
2022/07/23 11:25:30;;;;;;;;;;;;;;;33.21;30.77;99074.23;1643357;86;20441;-72
2022/07/23 11:28:16;;;;;;;;;;;;;;;33.20;30.80;99074.80;1615796;85;20445;-73
2022/07/23 11:30:45;;;;;;;;;;;;;;;33.06;30.94;99074.77;1647709;85;21831;-72
2022/07/23 11:33:15;;;;;;;;;;;;;;;32.95;31.33;99063.25;1660247;85;20076;-72
2022/07/23 11:35:42;;;;;;;;;;;;;;;32.91;31.20;99060.33;1647647;85;20421;-73
2022/07/23 11:38:13;;;;;;;;;;;;;;;32.86;31.34;99061.05;1660385;85;20636;-73
2022/07/23 11:40:39;;;;;;;;;;;;;;;32.73;31.49;99055.16;1647796;85;20209;-72
2022/07/23 11:43:07;;;;;;;;;;;;;;;32.66;31.48;99061.17;1660419;85;21151;-72
2022/07/23 11:45:39;;;;;;;;;;;;;;;32.65;32.03;99053.22;1647704;85;20106;-74
2022/07/23 11:48:07;;;;;;;;;;;;;;;32.61;32.17;99055.83;1671728;85;20151;-73
2022/07/23 11:50:34;;;;;;;;;;;;;;;32.58;32.06;99046.84;1647719;85;20126;-71
2022/07/23 11:53:00;;;;;;;;;;;;;;;32.60;31.44;99048.70;1647898;85;20083;-71
2022/07/23 11:55:28;;;;;;;;;;;;;;;32.66;31.98;99056.23;1660502;85;21763;-72
2022/07/23 11:57:54;;;;;;;;;;;;;;;32.67;32.08;99047.63;1647677;85;20178;-72
2022/07/23 12:00:22;;;;;;;;;;;;;;;32.64;32.29;99054.38;1660284;85;20132;-73
2022/07/23 12:02:50;;;;;;;;;;;;;;;32.61;31.59;99042.06;1650119;85;20215;-69
2022/07/23 12:05:19;;;;;;;;;;;;;;;32.57;31.90;99036.95;1678529;85;20127;-70
2022/07/23 12:07:51;;;;;;;;;;;;;;;32.63;32.04;99037.03;1666506;84;21090;-71
2022/07/23 12:10:30;;;;;;;;;;;;;;;32.65;31.90;99043.02;1647592;85;20193;-68
2022/07/23 12:13:02;;;;;;;;;;;;;;;32.62;31.53;99034.03;1668017;85;20126;-70
2022/07/23 12:15:32;;;;;;;;;;;;;;;32.59;31.71;99030.55;1635544;85;20457;-68
2022/07/23 12:18:01;;;;;;;;;;;;;;;32.62;31.57;99030.46;1658198;85;20104;-72
2022/07/23 12:20:30;;;;;;;;;;;;;;;32.67;31.56;99033.08;1660385;85;21229;-71
2022/07/23 12:22:59;;;;;;;;;;;;;;;32.73;31.65;99036.70;1655407;85;20133;-70
2022/07/23 12:25:29;;;;;;;;;;;;;;;32.72;31.66;99036.44;1660308;85;20120;-70
2022/07/23 12:28:07;;;;;;;;;;;;;;;32.71;31.13;99029.90;1647718;85;20123;-71
2022/07/23 12:30:40;;;;;;;;;;;;;;;32.72;31.13;99028.77;1670283;85;20107;-69
2022/07/23 12:33:07;;;;;;;;;;;;;;;32.67;31.55;99032.48;1666520;85;21754;-70
2022/07/23 12:35:40;;;;;;;;;;;;;;;32.56;31.87;99033.16;1672985;86;20198;-70
2022/07/23 12:38:10;;;;;;;;;;;;;;;32.50;31.98;99037.98;1673191;86;20191;-72
2022/07/23 12:40:43;;;;;;;;;;;;;;;32.54;32.04;99040.34;1673098;85;20143;-71
2022/07/23 12:43:31;;;;;;;;;;;;;;;32.61;31.57;99028.86;1666761;85;20090;-70
2022/07/23 12:46:16;;;;;;;;;;;;;;;32.67;31.41;99027.57;1673078;86;21925;-70
2022/07/23 12:48:51;;;;;;;;;;;;;;;32.72;31.50;99016.38;1671452;86;20130;-71
2022/07/23 12:51:24;;;;;;;;;;;;;;;32.68;31.43;99013.46;1673026;85;20528;-70
2022/07/23 12:53:53;;;;;;;;;;;;;;;32.62;31.82;99023.02;1671559;85;20154;-68
2022/07/23 12:56:21;;;;;;;;;;;;;;;32.50;31.73;99021.47;1667184;86;20179;-73
2022/07/23 12:58:54;;;;;;;;;;;;;;;32.36;32.01;99016.12;1638968;85;21143;-74
2022/07/23 13:01:24;;;;;;;;;;;;;;;32.29;31.87;99012.23;1648608;85;20105;-71